Center Point, West Virginia
Current Conditions -  °F | °C
As of 6:53 AM on Sunday 25 Jan 2015 (Local Time) from KCKB Reporting Station
Overcast Overcast  
Wind Chill: 27°   Ceiling: 3600
Heat Index: 33°   Visibility: 7mi
Dew Point: 31°   Wind: 7mph
Humidity: 92%   Direction: 210°SSW
Pressure: 29.79"   Gusts: NA
Location:  39.39°N, 80.64°W
Report Text: KCKB 251153Z AUTO 21006KT 7SM OVC036 01/M01 A2979 RMK AO2 SLP092 70004 T00061006 10006 20000 55002 TSNO
Loading
Personal Weather Stations






























Interactive Weather Map New forecast layout! Learn more

10-Day Weather Forecast

Advertisements
Track Severe Weather on mobile